sensor_id;sensor_type;location;lat;lon;timestamp;P1;durP1;ratioP1;P2;durP2;ratioP2
38264;SDS011;24062;47.480;8.768;2023-05-02T00:02:03;2.20;;;1.73;;
38264;SDS011;24062;47.480;8.768;2023-05-02T00:04:30;2.03;;;1.83;;
38264;SDS011;24062;47.480;8.768;2023-05-02T00:06:57;2.43;;;2.23;;
38264;SDS011;24062;47.480;8.768;2023-05-02T00:09:24;5.60;;;1.80;;
38264;SDS011;24062;47.480;8.768;2023-05-02T00:11:52;2.67;;;1.77;;
38264;SDS011;24062;47.480;8.768;2023-05-02T00:14:19;1.87;;;1.67;;
38264;SDS011;24062;47.480;8.768;2023-05-02T00:16:46;2.20;;;2.00;;
38264;SDS011;24062;47.480;8.768;2023-05-02T00:19:13;3.27;;;2.13;;
38264;SDS011;24062;47.480;8.768;2023-05-02T00:21:41;2.73;;;2.17;;
38264;SDS011;24062;47.480;8.768;2023-05-02T00:24:07;2.20;;;2.00;;
38264;SDS011;24062;47.480;8.768;2023-05-02T00:26:34;2.20;;;2.00;;
38264;SDS011;24062;47.480;8.768;2023-05-02T00:29:03;1.93;;;1.70;;
38264;SDS011;24062;47.480;8.768;2023-05-02T00:31:29;2.50;;;1.77;;
38264;SDS011;24062;47.480;8.768;2023-05-02T00:33:56;2.17;;;1.97;;
38264;SDS011;24062;47.480;8.768;2023-05-02T00:36:23;5.60;;;1.93;;
38264;SDS011;24062;47.480;8.768;2023-05-02T00:38:51;3.03;;;2.07;;
38264;SDS011;24062;47.480;8.768;2023-05-02T00:41:18;11.20;;;10.30;;
38264;SDS011;24062;47.480;8.768;2023-05-02T00:43:45;3.50;;;2.23;;
38264;SDS011;24062;47.480;8.768;2023-05-02T00:46:13;2.57;;;2.37;;
38264;SDS011;24062;47.480;8.768;2023-05-02T00:48:40;2.60;;;2.40;;
38264;SDS011;24062;47.480;8.768;2023-05-02T00:51:09;2.73;;;1.93;;
38264;SDS011;24062;47.480;8.768;2023-05-02T00:53:37;3.07;;;2.40;;
38264;SDS011;24062;47.480;8.768;2023-05-02T00:56:05;4.03;;;2.70;;
38264;SDS011;24062;47.480;8.768;2023-05-02T00:58:32;2.77;;;2.57;;
38264;SDS011;24062;47.480;8.768;2023-05-02T01:01:03;2.93;;;2.73;;
38264;SDS011;24062;47.480;8.768;2023-05-02T01:03:40;2.80;;;2.30;;
38264;SDS011;24062;47.480;8.768;2023-05-02T01:06:20;3.40;;;2.40;;
38264;SDS011;24062;47.480;8.768;2023-05-02T01:08:59;4.50;;;2.30;;
38264;SDS011;24062;47.480;8.768;2023-05-02T01:11:39;2.23;;;2.03;;
38264;SDS011;24062;47.480;8.768;2023-05-02T01:14:13;2.60;;;2.40;;
38264;SDS011;24062;47.480;8.768;2023-05-02T01:16:40;4.03;;;2.30;;
38264;SDS011;24062;47.480;8.768;2023-05-02T01:19:15;2.77;;;2.50;;
38264;SDS011;24062;47.480;8.768;2023-05-02T01:21:50;2.07;;;1.87;;
38264;SDS011;24062;47.480;8.768;2023-05-02T01:24:21;2.67;;;2.40;;
38264;SDS011;24062;47.480;8.768;2023-05-02T01:26:55;3.00;;;2.70;;
38264;SDS011;24062;47.480;8.768;2023-05-02T01:29:28;2.83;;;2.13;;
38264;SDS011;24062;47.480;8.768;2023-05-02T01:31:56;3.17;;;2.87;;
38264;SDS011;24062;47.480;8.768;2023-05-02T01:34:25;2.60;;;2.40;;
38264;SDS011;24062;47.480;8.768;2023-05-02T01:36:54;2.73;;;2.40;;
38264;SDS011;24062;47.480;8.768;2023-05-02T01:39:23;2.30;;;2.10;;
38264;SDS011;24062;47.480;8.768;2023-05-02T01:41:53;4.00;;;2.40;;
38264;SDS011;24062;47.480;8.768;2023-05-02T01:44:22;2.83;;;2.60;;
38264;SDS011;24062;47.480;8.768;2023-05-02T01:46:52;3.87;;;2.43;;
38264;SDS011;24062;47.480;8.768;2023-05-02T01:49:22;2.37;;;2.17;;
38264;SDS011;24062;47.480;8.768;2023-05-02T01:51:50;2.73;;;2.43;;
38264;SDS011;24062;47.480;8.768;2023-05-02T01:54:19;6.03;;;2.70;;
38264;SDS011;24062;47.480;8.768;2023-05-02T01:56:48;2.60;;;2.40;;
38264;SDS011;24062;47.480;8.768;2023-05-02T01:59:17;2.47;;;2.27;;
38264;SDS011;24062;47.480;8.768;2023-05-02T02:01:47;2.47;;;2.27;;
38264;SDS011;24062;47.480;8.768;2023-05-02T02:04:18;2.60;;;2.40;;
38264;SDS011;24062;47.480;8.768;2023-05-02T02:06:52;6.87;;;2.90;;
38264;SDS011;24062;47.480;8.768;2023-05-02T02:09:23;2.73;;;2.27;;
38264;SDS011;24062;47.480;8.768;2023-05-02T02:11:51;2.23;;;2.03;;
38264;SDS011;24062;47.480;8.768;2023-05-02T02:14:30;2.30;;;2.10;;
38264;SDS011;24062;47.480;8.768;2023-05-02T02:17:00;2.60;;;2.40;;
38264;SDS011;24062;47.480;8.768;2023-05-02T02:19:30;2.33;;;2.07;;
38264;SDS011;24062;47.480;8.768;2023-05-02T02:21:58;2.50;;;2.30;;
38264;SDS011;24062;47.480;8.768;2023-05-02T02:24:28;2.30;;;2.10;;
38264;SDS011;24062;47.480;8.768;2023-05-02T02:26:56;2.27;;;2.07;;
38264;SDS011;24062;47.480;8.768;2023-05-02T02:29:23;3.00;;;2.03;;
38264;SDS011;24062;47.480;8.768;2023-05-02T02:31:50;3.60;;;2.00;;
38264;SDS011;24062;47.480;8.768;2023-05-02T02:34:17;4.57;;;2.30;;
38264;SDS011;24062;47.480;8.768;2023-05-02T02:36:46;2.10;;;1.90;;
38264;SDS011;24062;47.480;8.768;2023-05-02T02:39:21;2.63;;;2.43;;
38264;SDS011;24062;47.480;8.768;2023-05-02T02:41:59;3.60;;;2.00;;
38264;SDS011;24062;47.480;8.768;2023-05-02T02:44:34;18.60;;;2.67;;
38264;SDS011;24062;47.480;8.768;2023-05-02T02:47:09;2.03;;;1.83;;
38264;SDS011;24062;47.480;8.768;2023-05-02T02:49:46;4.17;;;2.20;;
38264;SDS011;24062;47.480;8.768;2023-05-02T02:52:20;2.63;;;2.10;;
38264;SDS011;24062;47.480;8.768;2023-05-02T02:54:51;6.10;;;2.23;;
38264;SDS011;24062;47.480;8.768;2023-05-02T02:57:23;2.97;;;2.70;;
38264;SDS011;24062;47.480;8.768;2023-05-02T02:59:59;2.40;;;2.20;;
38264;SDS011;24062;47.480;8.768;2023-05-02T03:02:32;2.60;;;2.40;;
38264;SDS011;24062;47.480;8.768;2023-05-02T03:05:01;2.20;;;2.00;;
38264;SDS011;24062;47.480;8.768;2023-05-02T03:07:31;9.30;;;2.30;;
38264;SDS011;24062;47.480;8.768;2023-05-02T03:10:01;2.50;;;1.47;;
38264;SDS011;24062;47.480;8.768;2023-05-02T03:12:28;2.17;;;1.97;;
38264;SDS011;24062;47.480;8.768;2023-05-02T03:14:57;2.20;;;2.00;;
38264;SDS011;24062;47.480;8.768;2023-05-02T03:17:30;3.00;;;2.03;;
38264;SDS011;24062;47.480;8.768;2023-05-02T03:19:57;1.57;;;1.40;;
38264;SDS011;24062;47.480;8.768;2023-05-02T03:22:24;4.20;;;2.07;;
38264;SDS011;24062;47.480;8.768;2023-05-02T03:24:52;2.60;;;2.40;;
38264;SDS011;24062;47.480;8.768;2023-05-02T03:27:19;2.63;;;2.43;;
38264;SDS011;24062;47.480;8.768;2023-05-02T03:29:46;2.17;;;1.97;;
38264;SDS011;24062;47.480;8.768;2023-05-02T03:32:13;2.90;;;2.23;;
38264;SDS011;24062;47.480;8.768;2023-05-02T03:34:40;2.43;;;2.23;;
38264;SDS011;24062;47.480;8.768;2023-05-02T03:37:07;4.47;;;2.03;;
38264;SDS011;24062;47.480;8.768;2023-05-02T03:39:34;2.30;;;2.10;;
38264;SDS011;24062;47.480;8.768;2023-05-02T03:42:02;2.27;;;1.53;;
38264;SDS011;24062;47.480;8.768;2023-05-02T03:44:30;2.57;;;2.37;;
38264;SDS011;24062;47.480;8.768;2023-05-02T03:46:57;3.40;;;2.00;;
38264;SDS011;24062;47.480;8.768;2023-05-02T03:49:23;2.77;;;2.27;;
38264;SDS011;24062;47.480;8.768;2023-05-02T03:51:51;2.20;;;2.00;;
38264;SDS011;24062;47.480;8.768;2023-05-02T03:54:17;2.93;;;2.30;;
38264;SDS011;24062;47.480;8.768;2023-05-02T03:56:44;2.07;;;1.87;;
38264;SDS011;24062;47.480;8.768;2023-05-02T03:59:13;2.13;;;1.93;;
38264;SDS011;24062;47.480;8.768;2023-05-02T04:01:40;5.03;;;1.97;;
38264;SDS011;24062;47.480;8.768;2023-05-02T04:04:07;2.47;;;2.27;;
38264;SDS011;24062;47.480;8.768;2023-05-02T04:06:35;2.53;;;1.97;;
38264;SDS011;24062;47.480;8.768;2023-05-02T04:09:02;2.10;;;1.80;;
38264;SDS011;24062;47.480;8.768;2023-05-02T04:11:29;2.67;;;2.40;;
38264;SDS011;24062;47.480;8.768;2023-05-02T04:13:56;2.27;;;2.07;;
38264;SDS011;24062;47.480;8.768;2023-05-02T04:16:25;2.27;;;2.07;;
38264;SDS011;24062;47.480;8.768;2023-05-02T04:18:52;2.63;;;2.20;;
38264;SDS011;24062;47.480;8.768;2023-05-02T04:21:19;2.80;;;2.60;;
38264;SDS011;24062;47.480;8.768;2023-05-02T04:23:46;3.70;;;2.47;;
38264;SDS011;24062;47.480;8.768;2023-05-02T04:26:13;2.40;;;2.20;;
38264;SDS011;24062;47.480;8.768;2023-05-02T04:28:40;2.00;;;1.73;;
38264;SDS011;24062;47.480;8.768;2023-05-02T04:31:07;3.90;;;2.93;;
38264;SDS011;24062;47.480;8.768;2023-05-02T04:33:35;3.07;;;2.20;;
38264;SDS011;24062;47.480;8.768;2023-05-02T04:36:02;3.03;;;2.83;;
38264;SDS011;24062;47.480;8.768;2023-05-02T04:38:30;2.53;;;2.33;;
38264;SDS011;24062;47.480;8.768;2023-05-02T04:40:57;2.20;;;1.60;;
38264;SDS011;24062;47.480;8.768;2023-05-02T04:43:24;2.60;;;2.40;;
38264;SDS011;24062;47.480;8.768;2023-05-02T04:45:51;2.40;;;2.20;;
38264;SDS011;24062;47.480;8.768;2023-05-02T04:48:18;2.20;;;2.00;;
38264;SDS011;24062;47.480;8.768;2023-05-02T04:50:48;6.77;;;2.30;;
38264;SDS011;24062;47.480;8.768;2023-05-02T04:53:15;3.27;;;3.00;;
38264;SDS011;24062;47.480;8.768;2023-05-02T04:55:41;2.83;;;2.37;;
38264;SDS011;24062;47.480;8.768;2023-05-02T04:58:08;2.80;;;2.60;;
38264;SDS011;24062;47.480;8.768;2023-05-02T05:00:35;4.93;;;2.37;;
38264;SDS011;24062;47.480;8.768;2023-05-02T05:03:02;2.40;;;2.20;;
38264;SDS011;24062;47.480;8.768;2023-05-02T05:05:30;3.97;;;2.63;;
38264;SDS011;24062;47.480;8.768;2023-05-02T05:07:58;3.03;;;2.83;;
38264;SDS011;24062;47.480;8.768;2023-05-02T05:10:25;5.60;;;3.10;;
38264;SDS011;24062;47.480;8.768;2023-05-02T05:12:52;2.70;;;2.50;;
38264;SDS011;24062;47.480;8.768;2023-05-02T05:15:19;2.57;;;2.37;;
38264;SDS011;24062;47.480;8.768;2023-05-02T05:17:48;2.80;;;2.60;;
38264;SDS011;24062;47.480;8.768;2023-05-02T05:20:15;2.60;;;2.40;;
38264;SDS011;24062;47.480;8.768;2023-05-02T05:22:42;2.50;;;2.30;;
38264;SDS011;24062;47.480;8.768;2023-05-02T05:25:10;3.73;;;2.70;;
38264;SDS011;24062;47.480;8.768;2023-05-02T05:27:37;2.87;;;2.03;;
38264;SDS011;24062;47.480;8.768;2023-05-02T05:30:05;3.03;;;2.43;;
38264;SDS011;24062;47.480;8.768;2023-05-02T05:32:33;2.90;;;2.60;;
38264;SDS011;24062;47.480;8.768;2023-05-02T05:35:00;2.40;;;2.20;;
38264;SDS011;24062;47.480;8.768;2023-05-02T05:37:28;2.10;;;1.80;;
38264;SDS011;24062;47.480;8.768;2023-05-02T05:39:55;2.60;;;2.40;;
38264;SDS011;24062;47.480;8.768;2023-05-02T05:42:23;3.00;;;2.80;;
38264;SDS011;24062;47.480;8.768;2023-05-02T05:44:51;2.70;;;2.50;;
38264;SDS011;24062;47.480;8.768;2023-05-02T05:47:18;2.73;;;2.53;;
38264;SDS011;24062;47.480;8.768;2023-05-02T05:49:46;2.30;;;2.10;;
38264;SDS011;24062;47.480;8.768;2023-05-02T05:52:13;2.40;;;2.20;;
38264;SDS011;24062;47.480;8.768;2023-05-02T05:54:39;2.70;;;2.50;;
38264;SDS011;24062;47.480;8.768;2023-05-02T05:57:06;3.50;;;2.00;;
38264;SDS011;24062;47.480;8.768;2023-05-02T05:59:35;1.63;;;1.47;;
38264;SDS011;24062;47.480;8.768;2023-05-02T06:02:02;2.77;;;2.40;;
38264;SDS011;24062;47.480;8.768;2023-05-02T06:04:29;2.93;;;2.47;;
38264;SDS011;24062;47.480;8.768;2023-05-02T06:06:56;2.03;;;1.90;;
38264;SDS011;24062;47.480;8.768;2023-05-02T06:09:23;2.30;;;2.00;;
38264;SDS011;24062;47.480;8.768;2023-05-02T06:11:50;3.10;;;2.37;;
38264;SDS011;24062;47.480;8.768;2023-05-02T06:14:17;3.30;;;2.40;;
38264;SDS011;24062;47.480;8.768;2023-05-02T06:16:45;3.40;;;2.50;;
38264;SDS011;24062;47.480;8.768;2023-05-02T06:19:12;2.43;;;2.23;;
38264;SDS011;24062;47.480;8.768;2023-05-02T06:21:39;2.57;;;2.37;;
38264;SDS011;24062;47.480;8.768;2023-05-02T06:24:06;3.03;;;2.73;;
38264;SDS011;24062;47.480;8.768;2023-05-02T06:26:33;2.87;;;2.33;;
38264;SDS011;24062;47.480;8.768;2023-05-02T06:29:00;2.87;;;2.63;;
38264;SDS011;24062;47.480;8.768;2023-05-02T06:31:27;6.20;;;3.20;;
38264;SDS011;24062;47.480;8.768;2023-05-02T06:33:56;3.10;;;2.80;;
38264;SDS011;24062;47.480;8.768;2023-05-02T06:36:23;2.80;;;2.60;;
38264;SDS011;24062;47.480;8.768;2023-05-02T06:38:50;4.13;;;3.30;;
38264;SDS011;24062;47.480;8.768;2023-05-02T06:41:16;3.60;;;3.20;;
38264;SDS011;24062;47.480;8.768;2023-05-02T06:43:44;4.83;;;2.90;;
38264;SDS011;24062;47.480;8.768;2023-05-02T06:46:11;3.47;;;3.17;;
38264;SDS011;24062;47.480;8.768;2023-05-02T06:48:38;5.33;;;3.80;;
38264;SDS011;24062;47.480;8.768;2023-05-02T06:51:06;3.40;;;3.10;;
38264;SDS011;24062;47.480;8.768;2023-05-02T06:53:33;3.30;;;3.10;;
38264;SDS011;24062;47.480;8.768;2023-05-02T06:56:00;4.13;;;2.93;;
38264;SDS011;24062;47.480;8.768;2023-05-02T06:58:29;4.80;;;3.60;;
38264;SDS011;24062;47.480;8.768;2023-05-02T07:00:56;3.30;;;3.10;;
38264;SDS011;24062;47.480;8.768;2023-05-02T07:03:23;3.33;;;3.03;;
38264;SDS011;24062;47.480;8.768;2023-05-02T07:05:50;3.10;;;2.90;;
38264;SDS011;24062;47.480;8.768;2023-05-02T07:08:18;4.03;;;2.70;;
38264;SDS011;24062;47.480;8.768;2023-05-02T07:10:46;6.23;;;2.47;;
38264;SDS011;24062;47.480;8.768;2023-05-02T07:13:13;2.10;;;1.90;;
38264;SDS011;24062;47.480;8.768;2023-05-02T07:15:41;2.23;;;2.03;;
38264;SDS011;24062;47.480;8.768;2023-05-02T07:18:08;2.07;;;1.87;;
38264;SDS011;24062;47.480;8.768;2023-05-02T07:20:35;2.10;;;1.90;;
38264;SDS011;24062;47.480;8.768;2023-05-02T07:23:02;3.70;;;2.10;;
38264;SDS011;24062;47.480;8.768;2023-05-02T07:25:31;2.23;;;2.03;;
38264;SDS011;24062;47.480;8.768;2023-05-02T07:27:58;10.53;;;2.40;;
38264;SDS011;24062;47.480;8.768;2023-05-02T07:30:25;3.60;;;2.33;;
38264;SDS011;24062;47.480;8.768;2023-05-02T07:32:52;3.27;;;2.57;;
38264;SDS011;24062;47.480;8.768;2023-05-02T07:35:19;3.00;;;2.70;;
38264;SDS011;24062;47.480;8.768;2023-05-02T07:37:46;3.77;;;2.40;;
38264;SDS011;24062;47.480;8.768;2023-05-02T07:40:13;2.50;;;2.30;;
38264;SDS011;24062;47.480;8.768;2023-05-02T07:42:41;2.63;;;2.43;;
38264;SDS011;24062;47.480;8.768;2023-05-02T07:45:08;5.07;;;2.63;;
38264;SDS011;24062;47.480;8.768;2023-05-02T07:47:35;3.03;;;2.73;;
38264;SDS011;24062;47.480;8.768;2023-05-02T07:50:03;3.73;;;2.67;;
38264;SDS011;24062;47.480;8.768;2023-05-02T07:52:30;2.77;;;2.47;;
38264;SDS011;24062;47.480;8.768;2023-05-02T07:54:57;3.23;;;2.93;;
38264;SDS011;24062;47.480;8.768;2023-05-02T07:57:24;3.13;;;2.90;;
38264;SDS011;24062;47.480;8.768;2023-05-02T07:59:53;3.70;;;2.67;;
38264;SDS011;24062;47.480;8.768;2023-05-02T08:02:21;4.23;;;2.77;;
38264;SDS011;24062;47.480;8.768;2023-05-02T08:04:48;5.53;;;3.27;;
38264;SDS011;24062;47.480;8.768;2023-05-02T08:07:15;4.23;;;3.17;;
38264;SDS011;24062;47.480;8.768;2023-05-02T08:09:42;3.10;;;2.70;;
38264;SDS011;24062;47.480;8.768;2023-05-02T08:12:09;3.40;;;3.10;;
38264;SDS011;24062;47.480;8.768;2023-05-02T08:14:36;6.23;;;2.97;;
38264;SDS011;24062;47.480;8.768;2023-05-02T08:17:04;3.00;;;2.70;;
38264;SDS011;24062;47.480;8.768;2023-05-02T08:19:31;3.40;;;3.10;;
38264;SDS011;24062;47.480;8.768;2023-05-02T08:21:58;4.07;;;3.67;;
38264;SDS011;24062;47.480;8.768;2023-05-02T08:24:25;4.23;;;3.30;;
38264;SDS011;24062;47.480;8.768;2023-05-02T08:26:52;3.53;;;3.20;;
38264;SDS011;24062;47.480;8.768;2023-05-02T08:29:19;3.93;;;3.63;;
38264;SDS011;24062;47.480;8.768;2023-05-02T08:31:46;4.13;;;3.80;;
38264;SDS011;24062;47.480;8.768;2023-05-02T08:34:14;11.80;;;4.30;;
38264;SDS011;24062;47.480;8.768;2023-05-02T08:36:41;5.53;;;4.27;;
38264;SDS011;24062;47.480;8.768;2023-05-02T08:39:08;4.30;;;4.00;;
38264;SDS011;24062;47.480;8.768;2023-05-02T08:41:35;4.60;;;4.20;;
38264;SDS011;24062;47.480;8.768;2023-05-02T08:44:04;4.50;;;4.10;;
38264;SDS011;24062;47.480;8.768;2023-05-02T08:46:31;4.90;;;4.50;;
38264;SDS011;24062;47.480;8.768;2023-05-02T08:49:01;7.83;;;4.10;;
38264;SDS011;24062;47.480;8.768;2023-05-02T08:51:30;4.93;;;3.80;;
38264;SDS011;24062;47.480;8.768;2023-05-02T08:53:57;4.50;;;4.10;;
38264;SDS011;24062;47.480;8.768;2023-05-02T08:56:27;3.80;;;3.33;;
38264;SDS011;24062;47.480;8.768;2023-05-02T08:58:54;4.30;;;4.00;;
38264;SDS011;24062;47.480;8.768;2023-05-02T09:01:21;3.57;;;3.27;;
38264;SDS011;24062;47.480;8.768;2023-05-02T09:03:49;4.63;;;3.93;;
38264;SDS011;24062;47.480;8.768;2023-05-02T09:06:17;4.10;;;3.60;;
38264;SDS011;24062;47.480;8.768;2023-05-02T09:08:47;3.67;;;3.37;;
38264;SDS011;24062;47.480;8.768;2023-05-02T09:11:16;3.57;;;3.27;;
38264;SDS011;24062;47.480;8.768;2023-05-02T09:13:44;4.13;;;3.70;;
38264;SDS011;24062;47.480;8.768;2023-05-02T09:16:12;4.10;;;3.80;;
38264;SDS011;24062;47.480;8.768;2023-05-02T09:18:41;3.60;;;3.27;;
38264;SDS011;24062;47.480;8.768;2023-05-02T09:21:10;3.53;;;3.20;;
38264;SDS011;24062;47.480;8.768;2023-05-02T09:23:39;4.00;;;3.70;;
38264;SDS011;24062;47.480;8.768;2023-05-02T09:26:15;5.33;;;3.57;;
38264;SDS011;24062;47.480;8.768;2023-05-02T09:28:43;4.30;;;3.87;;
38264;SDS011;24062;47.480;8.768;2023-05-02T09:31:12;15.40;;;5.27;;
38264;SDS011;24062;47.480;8.768;2023-05-02T09:33:40;8.50;;;3.60;;
38264;SDS011;24062;47.480;8.768;2023-05-02T09:36:07;8.00;;;3.67;;
38264;SDS011;24062;47.480;8.768;2023-05-02T09:38:38;4.00;;;3.70;;
38264;SDS011;24062;47.480;8.768;2023-05-02T09:41:05;4.80;;;3.87;;
38264;SDS011;24062;47.480;8.768;2023-05-02T09:43:33;4.60;;;3.90;;
38264;SDS011;24062;47.480;8.768;2023-05-02T09:46:01;3.40;;;3.10;;
38264;SDS011;24062;47.480;8.768;2023-05-02T09:48:29;3.83;;;3.53;;
38264;SDS011;24062;47.480;8.768;2023-05-02T09:50:57;4.10;;;3.70;;
38264;SDS011;24062;47.480;8.768;2023-05-02T09:53:25;10.60;;;4.13;;
38264;SDS011;24062;47.480;8.768;2023-05-02T09:55:58;4.10;;;3.70;;
38264;SDS011;24062;47.480;8.768;2023-05-02T09:58:26;4.23;;;3.70;;
38264;SDS011;24062;47.480;8.768;2023-05-02T10:00:56;3.80;;;3.50;;
38264;SDS011;24062;47.480;8.768;2023-05-02T10:03:24;3.73;;;3.43;;
38264;SDS011;24062;47.480;8.768;2023-05-02T10:05:52;3.70;;;3.40;;
38264;SDS011;24062;47.480;8.768;2023-05-02T10:08:21;3.70;;;3.37;;
38264;SDS011;24062;47.480;8.768;2023-05-02T10:10:51;4.20;;;3.90;;
38264;SDS011;24062;47.480;8.768;2023-05-02T10:13:20;4.43;;;3.40;;
38264;SDS011;24062;47.480;8.768;2023-05-02T10:15:49;3.80;;;3.50;;
38264;SDS011;24062;47.480;8.768;2023-05-02T10:18:27;3.70;;;3.40;;
38264;SDS011;24062;47.480;8.768;2023-05-02T10:21:07;4.20;;;3.80;;
38264;SDS011;24062;47.480;8.768;2023-05-02T10:23:35;3.37;;;3.10;;
38264;SDS011;24062;47.480;8.768;2023-05-02T10:26:07;3.90;;;3.60;;
38264;SDS011;24062;47.480;8.768;2023-05-02T10:28:34;3.57;;;3.27;;
38264;SDS011;24062;47.480;8.768;2023-05-02T10:31:03;4.10;;;3.70;;
38264;SDS011;24062;47.480;8.768;2023-05-02T10:33:33;4.10;;;3.80;;
38264;SDS011;24062;47.480;8.768;2023-05-02T10:36:01;3.77;;;3.40;;
38264;SDS011;24062;47.480;8.768;2023-05-02T10:38:29;3.10;;;2.90;;
38264;SDS011;24062;47.480;8.768;2023-05-02T10:40:57;6.10;;;3.00;;
38264;SDS011;24062;47.480;8.768;2023-05-02T10:43:29;6.13;;;3.63;;
38264;SDS011;24062;47.480;8.768;2023-05-02T10:45:59;4.87;;;3.40;;
38264;SDS011;24062;47.480;8.768;2023-05-02T10:48:27;3.90;;;3.60;;
38264;SDS011;24062;47.480;8.768;2023-05-02T10:50:57;3.73;;;3.40;;
38264;SDS011;24062;47.480;8.768;2023-05-02T10:53:26;4.10;;;3.57;;
38264;SDS011;24062;47.480;8.768;2023-05-02T10:56:16;3.20;;;2.90;;
38264;SDS011;24062;47.480;8.768;2023-05-02T10:58:46;3.90;;;3.60;;
38264;SDS011;24062;47.480;8.768;2023-05-02T11:04:02;5.27;;;3.50;;
38264;SDS011;24062;47.480;8.768;2023-05-02T11:06:32;4.33;;;3.93;;
38264;SDS011;24062;47.480;8.768;2023-05-02T11:11:55;6.47;;;2.60;;
38264;SDS011;24062;47.480;8.768;2023-05-02T11:14:42;7.23;;;3.50;;
38264;SDS011;24062;47.480;8.768;2023-05-02T11:17:11;4.53;;;4.07;;
38264;SDS011;24062;47.480;8.768;2023-05-02T11:22:58;3.23;;;2.93;;
38264;SDS011;24062;47.480;8.768;2023-05-02T11:25:47;6.83;;;3.57;;
38264;SDS011;24062;47.480;8.768;2023-05-02T11:31:08;4.50;;;3.40;;
38264;SDS011;24062;47.480;8.768;2023-05-02T11:34:07;4.07;;;3.67;;
38264;SDS011;24062;47.480;8.768;2023-05-02T11:36:35;3.60;;;2.63;;
38264;SDS011;24062;47.480;8.768;2023-05-02T11:39:03;3.47;;;3.17;;
38264;SDS011;24062;47.480;8.768;2023-05-02T11:41:39;4.93;;;3.20;;
38264;SDS011;24062;47.480;8.768;2023-05-02T11:44:06;3.80;;;2.60;;
38264;SDS011;24062;47.480;8.768;2023-05-02T11:46:35;3.33;;;3.03;;
38264;SDS011;24062;47.480;8.768;2023-05-02T11:49:02;4.13;;;3.73;;
38264;SDS011;24062;47.480;8.768;2023-05-02T11:51:30;4.00;;;3.70;;
38264;SDS011;24062;47.480;8.768;2023-05-02T11:53:57;2.93;;;2.73;;
38264;SDS011;24062;47.480;8.768;2023-05-02T11:56:25;2.97;;;2.67;;
38264;SDS011;24062;47.480;8.768;2023-05-02T11:58:56;5.73;;;3.17;;
38264;SDS011;24062;47.480;8.768;2023-05-02T12:01:24;3.00;;;2.70;;
38264;SDS011;24062;47.480;8.768;2023-05-02T12:04:00;3.73;;;3.43;;
38264;SDS011;24062;47.480;8.768;2023-05-02T12:06:27;2.90;;;2.70;;
38264;SDS011;24062;47.480;8.768;2023-05-02T12:09:04;3.37;;;3.07;;
38264;SDS011;24062;47.480;8.768;2023-05-02T12:11:34;3.00;;;2.80;;
38264;SDS011;24062;47.480;8.768;2023-05-02T12:14:02;4.00;;;3.47;;
38264;SDS011;24062;47.480;8.768;2023-05-02T12:16:29;3.33;;;2.63;;
38264;SDS011;24062;47.480;8.768;2023-05-02T12:18:57;3.43;;;3.13;;
38264;SDS011;24062;47.480;8.768;2023-05-02T12:21:25;3.40;;;2.10;;
38264;SDS011;24062;47.480;8.768;2023-05-02T12:23:53;3.60;;;3.30;;
38264;SDS011;24062;47.480;8.768;2023-05-02T12:26:21;2.97;;;2.67;;
38264;SDS011;24062;47.480;8.768;2023-05-02T12:28:54;2.67;;;2.47;;
38264;SDS011;24062;47.480;8.768;2023-05-02T12:31:22;4.80;;;3.00;;
38264;SDS011;24062;47.480;8.768;2023-05-02T12:33:49;3.43;;;3.13;;
38264;SDS011;24062;47.480;8.768;2023-05-02T12:36:19;7.53;;;3.50;;
38264;SDS011;24062;47.480;8.768;2023-05-02T12:38:49;5.00;;;3.27;;
38264;SDS011;24062;47.480;8.768;2023-05-02T12:41:19;3.43;;;3.13;;
38264;SDS011;24062;47.480;8.768;2023-05-02T12:44:00;2.80;;;2.60;;
38264;SDS011;24062;47.480;8.768;2023-05-02T12:46:27;2.43;;;2.23;;
38264;SDS011;24062;47.480;8.768;2023-05-02T12:49:01;3.10;;;2.80;;
38264;SDS011;24062;47.480;8.768;2023-05-02T12:51:29;2.57;;;2.37;;
38264;SDS011;24062;47.480;8.768;2023-05-02T12:53:57;4.80;;;2.77;;
38264;SDS011;24062;47.480;8.768;2023-05-02T12:56:23;3.67;;;3.37;;
38264;SDS011;24062;47.480;8.768;2023-05-02T12:58:56;2.40;;;2.20;;
38264;SDS011;24062;47.480;8.768;2023-05-02T13:01:26;3.17;;;2.63;;
38264;SDS011;24062;47.480;8.768;2023-05-02T13:03:53;3.20;;;2.90;;
38264;SDS011;24062;47.480;8.768;2023-05-02T13:06:20;3.90;;;2.70;;
38264;SDS011;24062;47.480;8.768;2023-05-02T13:08:47;3.50;;;3.20;;
38264;SDS011;24062;47.480;8.768;2023-05-02T13:11:14;2.80;;;2.50;;
38264;SDS011;24062;47.480;8.768;2023-05-02T13:13:42;3.30;;;3.00;;
38264;SDS011;24062;47.480;8.768;2023-05-02T13:16:08;4.00;;;3.10;;
38264;SDS011;24062;47.480;8.768;2023-05-02T13:18:37;3.47;;;2.90;;
38264;SDS011;24062;47.480;8.768;2023-05-02T13:21:04;2.40;;;2.20;;
38264;SDS011;24062;47.480;8.768;2023-05-02T13:23:31;2.70;;;2.40;;
38264;SDS011;24062;47.480;8.768;2023-05-02T13:25:58;2.27;;;1.90;;
38264;SDS011;24062;47.480;8.768;2023-05-02T13:28:25;4.00;;;2.10;;
38264;SDS011;24062;47.480;8.768;2023-05-02T13:30:54;2.33;;;1.93;;
38264;SDS011;24062;47.480;8.768;2023-05-02T13:33:21;3.27;;;2.23;;
38264;SDS011;24062;47.480;8.768;2023-05-02T13:35:49;2.60;;;2.33;;
38264;SDS011;24062;47.480;8.768;2023-05-02T13:38:16;5.80;;;3.00;;
38264;SDS011;24062;47.480;8.768;2023-05-02T13:40:43;4.03;;;2.60;;
38264;SDS011;24062;47.480;8.768;2023-05-02T13:43:10;2.17;;;1.97;;
38264;SDS011;24062;47.480;8.768;2023-05-02T13:45:37;3.20;;;1.80;;
38264;SDS011;24062;47.480;8.768;2023-05-02T13:48:04;2.03;;;1.38;;
38264;SDS011;24062;47.480;8.768;2023-05-02T13:50:31;1.70;;;1.15;;
38264;SDS011;24062;47.480;8.768;2023-05-02T13:53:02;3.13;;;1.08;;
38264;SDS011;24062;47.480;8.768;2023-05-02T13:55:29;5.10;;;1.85;;
38264;SDS011;24062;47.480;8.768;2023-05-02T13:57:56;1.77;;;1.20;;
38264;SDS011;24062;47.480;8.768;2023-05-02T14:00:23;1.80;;;1.20;;
38264;SDS011;24062;47.480;8.768;2023-05-02T14:02:52;2.10;;;1.42;;
38264;SDS011;24062;47.480;8.768;2023-05-02T14:05:19;2.17;;;1.10;;
38264;SDS011;24062;47.480;8.768;2023-05-02T14:07:46;2.05;;;1.10;;
38264;SDS011;24062;47.480;8.768;2023-05-02T14:10:15;1.63;;;1.00;;
38264;SDS011;24062;47.480;8.768;2023-05-02T14:12:42;1.58;;;0.93;;
38264;SDS011;24062;47.480;8.768;2023-05-02T14:15:09;1.60;;;0.90;;
38264;SDS011;24062;47.480;8.768;2023-05-02T14:17:36;1.88;;;0.80;;
38264;SDS011;24062;47.480;8.768;2023-05-02T14:20:03;1.77;;;0.80;;
38264;SDS011;24062;47.480;8.768;2023-05-02T14:22:32;4.35;;;1.10;;
38264;SDS011;24062;47.480;8.768;2023-05-02T14:24:58;1.60;;;0.95;;
38264;SDS011;24062;47.480;8.768;2023-05-02T14:27:27;1.50;;;0.70;;
38264;SDS011;24062;47.480;8.768;2023-05-02T14:29:54;1.60;;;1.02;;
38264;SDS011;24062;47.480;8.768;2023-05-02T14:32:21;1.55;;;0.70;;
38264;SDS011;24062;47.480;8.768;2023-05-02T14:34:47;2.35;;;0.80;;
38264;SDS011;24062;47.480;8.768;2023-05-02T14:37:14;1.50;;;0.90;;
38264;SDS011;24062;47.480;8.768;2023-05-02T14:39:41;1.50;;;0.80;;
38264;SDS011;24062;47.480;8.768;2023-05-02T14:42:09;2.40;;;1.00;;
38264;SDS011;24062;47.480;8.768;2023-05-02T14:44:38;1.40;;;0.70;;
38264;SDS011;24062;47.480;8.768;2023-05-02T14:47:06;1.50;;;0.80;;
38264;SDS011;24062;47.480;8.768;2023-05-02T14:49:32;1.40;;;0.80;;
38264;SDS011;24062;47.480;8.768;2023-05-02T14:52:00;1.70;;;0.90;;
38264;SDS011;24062;47.480;8.768;2023-05-02T14:54:27;1.50;;;0.95;;
38264;SDS011;24062;47.480;8.768;2023-05-02T14:56:54;2.97;;;0.70;;
38264;SDS011;24062;47.480;8.768;2023-05-02T14:59:22;1.42;;;0.70;;
38264;SDS011;24062;47.480;8.768;2023-05-02T15:01:51;1.60;;;0.60;;
38264;SDS011;24062;47.480;8.768;2023-05-02T15:04:18;1.40;;;0.70;;
38264;SDS011;24062;47.480;8.768;2023-05-02T15:06:45;1.30;;;0.70;;
38264;SDS011;24062;47.480;8.768;2023-05-02T15:09:12;1.38;;;0.75;;